createdAt,value
2022-12-28T00:02:49.484Z,94509.19
2022-12-28T00:07:56.434Z,94501.94
2022-12-28T00:13:03.416Z,94506.44
2022-12-28T00:18:10.822Z,94505.72
2022-12-28T00:23:17.980Z,94509.50
2022-12-28T00:28:25.744Z,94504.67
2022-12-28T00:33:33.710Z,94505.11
2022-12-28T00:38:40.731Z,94501.20
2022-12-28T00:43:47.929Z,94502.91
2022-12-28T00:48:55.459Z,94508.44
2022-12-28T00:54:02.572Z,94512.97
2022-12-28T00:59:09.531Z,94516.97
2022-12-28T01:04:16.753Z,94513.30
2022-12-28T01:09:23.893Z,94502.80
2022-12-28T01:14:30.670Z,94501.84
2022-12-28T01:19:37.461Z,94504.76
2022-12-28T01:24:44.281Z,94500.27
2022-12-28T01:29:51.385Z,94504.92
2022-12-28T01:34:58.678Z,94498.98
2022-12-28T01:40:05.786Z,94481.05
2022-12-28T01:45:23.417Z,94471.24
2022-12-28T01:50:31.695Z,94461.22
2022-12-28T01:55:41.727Z,94457.14
2022-12-28T02:00:48.718Z,94295.45
2022-12-28T02:05:59.082Z,94457.16
2022-12-28T02:11:07.693Z,94468.03
2022-12-28T02:16:15.181Z,94450.75
2022-12-28T02:21:35.778Z,94445.75
2022-12-28T02:27:03.612Z,94432.89
2022-12-28T02:32:44.434Z,94426.14
2022-12-28T02:37:57.729Z,94414.61
2022-12-28T02:43:05.515Z,94416.09
2022-12-28T02:48:29.985Z,94406.52
2022-12-28T02:53:43.919Z,94398.17
2022-12-28T02:59:13.355Z,94394.05
2022-12-28T03:04:30.555Z,94382.22
2022-12-28T03:09:44.330Z,94377.69
2022-12-28T03:14:54.247Z,94368.08
2022-12-28T03:20:22.342Z,94363.09
2022-12-28T03:25:53.399Z,94350.80
2022-12-28T03:31:07.301Z,94364.55
2022-12-28T03:36:29.723Z,94358.08
2022-12-28T03:41:43.589Z,94359.22
2022-12-28T03:47:06.146Z,94345.58
2022-12-28T03:52:14.226Z,94356.25
2022-12-28T03:57:21.013Z,94349.77
2022-12-28T04:02:27.758Z,94353.90
2022-12-28T04:07:34.524Z,94344.97
2022-12-28T04:12:41.332Z,94341.57
2022-12-28T04:17:48.020Z,94346.16
2022-12-28T04:22:54.785Z,94344.59
2022-12-28T04:28:02.568Z,94333.21
2022-12-28T04:33:09.320Z,94332.30
2022-12-28T04:38:16.001Z,94340.13
2022-12-28T04:43:22.679Z,94333.66
2022-12-28T04:48:29.668Z,94334.52
2022-12-28T04:53:41.194Z,94331.81
2022-12-28T04:58:48.352Z,94335.52
2022-12-28T05:03:58.274Z,94340.85
2022-12-28T05:09:04.700Z,94327.20
2022-12-28T05:14:11.345Z,94308.78
2022-12-28T05:19:18.084Z,94310.77
2022-12-28T05:24:24.959Z,94327.12
2022-12-28T05:29:31.623Z,94330.23
2022-12-28T05:34:38.306Z,94325.50
2022-12-28T05:39:44.865Z,94334.84
2022-12-28T05:44:51.624Z,94347.84
2022-12-28T05:49:58.233Z,94345.98
2022-12-28T05:55:04.996Z,94345.92
2022-12-28T06:00:13.436Z,94335.45
2022-12-28T06:05:20.086Z,94326.73
2022-12-28T06:10:26.870Z,94328.75
2022-12-28T06:15:33.516Z,94313.19
2022-12-28T06:20:40.180Z,94307.25
2022-12-28T06:25:46.765Z,94302.11
2022-12-28T06:30:53.469Z,94310.86
2022-12-28T06:36:00.267Z,94299.25
2022-12-28T06:41:14.292Z,94279.53
2022-12-28T06:46:19.250Z,94265.02
2022-12-28T06:51:32.436Z,94269.28
2022-12-28T06:56:39.685Z,94252.90
2022-12-28T07:01:46.489Z,94267.69
2022-12-28T07:06:53.278Z,94273.66
2022-12-28T07:12:00.017Z,94279.00
2022-12-28T07:17:06.785Z,94282.79
2022-12-28T07:22:13.542Z,94273.41
2022-12-28T07:27:20.197Z,94257.45
2022-12-28T07:32:26.945Z,94276.42
2022-12-28T07:37:33.712Z,94271.61
2022-12-28T07:42:40.335Z,94265.23
2022-12-28T07:47:47.008Z,94257.03
2022-12-28T07:52:53.740Z,94257.09
2022-12-28T07:58:00.856Z,94248.88
2022-12-28T08:03:07.595Z,94279.40
2022-12-28T08:08:14.271Z,94279.19
2022-12-28T08:13:20.978Z,94282.21
2022-12-28T08:18:28.361Z,94096.79
2022-12-28T08:23:35.946Z,94265.51
2022-12-28T08:28:43.878Z,94264.63
2022-12-28T08:33:51.568Z,94278.81
2022-12-28T08:39:01.489Z,94288.57
2022-12-28T08:44:08.498Z,94276.20
2022-12-28T08:49:15.530Z,94274.69
2022-12-28T08:54:22.453Z,94275.39
2022-12-28T08:59:29.205Z,94271.91
2022-12-28T09:04:36.822Z,94281.25
2022-12-28T09:09:43.520Z,94272.69
2022-12-28T09:14:50.189Z,94279.52
2022-12-28T09:19:56.895Z,94275.96
2022-12-28T09:25:03.818Z,94253.69
2022-12-28T09:30:12.802Z,94251.50
2022-12-28T09:35:19.518Z,94252.73
2022-12-28T09:40:26.283Z,94256.02
2022-12-28T09:45:35.159Z,94247.83
2022-12-28T09:50:42.676Z,94247.81
2022-12-28T09:55:57.725Z,94235.83
2022-12-28T10:01:06.477Z,94236.73
2022-12-28T10:06:17.248Z,94236.46
2022-12-28T10:11:28.081Z,94236.30
2022-12-28T10:16:36.982Z,94236.43
2022-12-28T10:21:44.175Z,94237.18
2022-12-28T10:26:51.172Z,94230.83
2022-12-28T10:32:13.723Z,94226.10
2022-12-28T10:37:21.707Z,94221.31
2022-12-28T10:42:41.480Z,94219.89
2022-12-28T10:47:55.224Z,94211.20
2022-12-28T10:53:02.109Z,94202.05
2022-12-28T10:58:29.450Z,94178.00
2022-12-28T11:03:37.886Z,94181.42
2022-12-28T11:08:47.620Z,94172.09
2022-12-28T11:14:18.316Z,94169.81
2022-12-28T11:19:26.804Z,94157.03
2022-12-28T11:24:39.368Z,94153.89
2022-12-28T11:29:46.763Z,94149.53
2022-12-28T11:34:56.205Z,94145.55
2022-12-28T11:40:03.417Z,94136.41
2022-12-28T11:45:19.129Z,94122.44
2022-12-28T11:50:44.835Z,94092.42
2022-12-28T11:56:08.400Z,94086.43
2022-12-28T12:01:35.751Z,94084.39
2022-12-28T12:06:49.975Z,94075.34
2022-12-28T12:12:06.484Z,94071.69
2022-12-28T12:17:26.667Z,94057.39
2022-12-28T12:22:40.911Z,94050.02
2022-12-28T12:28:03.483Z,94047.16
2022-12-28T12:33:20.666Z,94041.00
2022-12-28T12:38:34.748Z,94031.85
2022-12-28T12:44:30.746Z,94019.28
2022-12-28T12:50:15.162Z,94004.27
2022-12-28T12:55:41.063Z,94003.83
2022-12-28T13:01:26.985Z,94009.51
2022-12-28T13:06:35.548Z,94004.25
2022-12-28T13:11:42.739Z,93999.43
2022-12-28T13:16:53.807Z,94002.30
2022-12-28T13:22:00.833Z,94004.20
2022-12-28T13:27:12.685Z,93990.78
2022-12-28T13:32:38.236Z,93983.35
2022-12-28T13:37:42.744Z,93977.22
2022-12-28T13:43:16.246Z,93973.70
2022-12-28T13:48:24.816Z,93983.81
2022-12-28T13:53:34.177Z,93981.06
2022-12-28T13:58:48.650Z,93965.74
2022-12-28T14:04:50.446Z,93806.58
2022-12-28T14:09:18.152Z,93986.90
2022-12-28T14:14:25.339Z,93986.27
2022-12-28T14:19:32.823Z,93972.92
2022-12-28T14:24:42.590Z,93957.78
2022-12-28T14:29:49.742Z,93968.18
2022-12-28T14:35:00.826Z,93965.95
2022-12-28T14:40:12.265Z,93966.17
2022-12-28T14:46:06.592Z,93973.15
2022-12-28T14:51:04.476Z,93971.19
2022-12-28T14:56:19.694Z,93988.92
2022-12-28T15:01:29.176Z,93986.59
2022-12-28T15:06:36.488Z,93973.27
2022-12-28T15:11:43.206Z,93966.03
2022-12-28T15:16:50.402Z,93964.06
2022-12-28T15:21:57.124Z,93966.39
2022-12-28T15:27:05.269Z,93971.92
2022-12-28T15:32:12.233Z,93960.02
2022-12-28T15:37:19.634Z,93957.59
2022-12-28T15:42:26.560Z,93965.78
2022-12-28T15:47:33.536Z,93958.35
2022-12-28T15:52:41.218Z,93967.64
2022-12-28T15:57:47.912Z,93963.02
2022-12-28T16:02:55.803Z,93951.21
2022-12-28T16:08:02.742Z,93951.75
2022-12-28T16:13:10.364Z,93954.02
2022-12-28T16:18:17.045Z,93961.09
2022-12-28T16:23:23.896Z,93967.35
2022-12-28T16:28:31.167Z,93959.69
2022-12-28T16:33:38.012Z,93958.45
2022-12-28T16:38:45.191Z,93958.40
2022-12-28T16:43:52.698Z,93966.75
2022-12-28T16:49:02.139Z,93966.91
2022-12-28T16:54:09.988Z,93976.02
2022-12-28T16:59:26.174Z,93969.25
2022-12-28T17:04:33.365Z,93969.81
2022-12-28T17:09:43.031Z,93974.20
2022-12-28T17:14:50.301Z,93962.04
2022-12-28T17:19:57.299Z,93972.86
2022-12-28T17:25:04.023Z,93964.22
2022-12-28T17:30:11.803Z,93967.05
2022-12-28T17:35:18.591Z,93956.95
2022-12-28T17:40:25.609Z,93952.84
2022-12-28T17:45:32.920Z,93945.60
2022-12-28T17:50:46.294Z,93959.41
2022-12-28T17:55:53.049Z,93942.10
2022-12-28T18:01:01.162Z,93936.73
2022-12-28T18:06:09.923Z,93929.06
2022-12-28T18:11:17.293Z,93921.07
2022-12-28T18:16:24.653Z,93924.72
2022-12-28T18:21:31.945Z,93910.67
2022-12-28T18:26:39.229Z,93918.32
2022-12-28T18:31:46.310Z,93911.97
2022-12-28T18:36:53.316Z,93901.11
2022-12-28T18:42:00.200Z,93891.67
2022-12-28T18:47:06.940Z,93891.16
2022-12-28T18:52:13.777Z,93885.27
2022-12-28T18:57:20.579Z,93875.64
2022-12-28T19:02:27.566Z,93874.57
2022-12-28T19:07:34.403Z,93857.77
2022-12-28T19:12:42.744Z,93861.61
2022-12-28T19:17:50.595Z,93859.88
2022-12-28T19:22:57.292Z,93855.39
2022-12-28T19:28:04.253Z,93863.72
2022-12-28T19:33:11.406Z,93855.15
2022-12-28T19:38:18.721Z,93850.74
2022-12-28T19:43:26.130Z,93849.03
2022-12-28T19:48:32.737Z,93847.80
2022-12-28T19:53:40.446Z,93836.77
2022-12-28T19:58:48.089Z,93840.47
2022-12-28T20:03:56.033Z,93845.62
2022-12-28T20:09:03.886Z,93834.14
2022-12-28T20:14:13.704Z,93832.64
2022-12-28T20:19:20.576Z,93833.05
2022-12-28T20:24:27.255Z,93825.59
2022-12-28T20:29:34.164Z,93813.50
2022-12-28T20:34:41.302Z,93811.55
2022-12-28T20:39:48.053Z,93810.88
2022-12-28T20:44:56.537Z,93805.60
2022-12-28T20:50:04.998Z,93798.69
2022-12-28T20:55:13.020Z,93795.78
2022-12-28T21:00:20.172Z,93787.13
2022-12-28T21:05:27.495Z,93785.12
2022-12-28T21:10:34.219Z,93780.25
2022-12-28T21:15:43.176Z,93784.17
2022-12-28T21:20:54.826Z,93777.84
2022-12-28T21:26:08.011Z,93763.52
2022-12-28T21:31:15.341Z,93762.87
2022-12-28T21:36:22.213Z,93753.06
2022-12-28T21:41:46.929Z,93750.82
2022-12-28T21:46:55.491Z,93770.64
2022-12-28T21:52:03.580Z,93743.25
2022-12-28T21:57:13.164Z,93724.41
2022-12-28T22:02:39.239Z,93726.00
2022-12-28T22:07:46.292Z,93721.79
2022-12-28T22:12:53.994Z,93707.17
2022-12-28T22:18:05.461Z,93707.00
2022-12-28T22:23:12.319Z,93705.46
2022-12-28T22:28:19.245Z,93702.77
2022-12-28T22:33:26.198Z,93703.54
2022-12-28T22:38:33.042Z,93700.56
2022-12-28T22:43:40.347Z,93690.82
2022-12-28T22:48:47.185Z,93696.22
2022-12-28T22:53:53.980Z,93690.70
2022-12-28T22:59:04.693Z,93689.52
2022-12-28T23:04:09.754Z,93676.72
2022-12-28T23:09:16.667Z,93667.24
2022-12-28T23:14:43.659Z,93655.64
2022-12-28T23:20:08.059Z,93656.84
2022-12-28T23:25:40.391Z,93652.75
2022-12-28T23:30:49.619Z,93487.48
2022-12-28T23:35:56.737Z,93640.44
2022-12-28T23:41:25.983Z,93636.22
2022-12-28T23:46:33.018Z,93624.92
2022-12-28T23:51:40.048Z,93620.63
2022-12-28T23:56:47.758Z,93626.12
